Pagina principale
METAR-TAF:

METAR-TAF

Aeroporti :

Aeroporto di Bari-Palese

Bari, Italia

latitudine: 41-08N, longitudine: 016-47E, altezza: 34 m

Osservazione

Il bollettino è stato emesso 32 minuti fa, alle 02:50 UTC
Vento 5 kt da sud/sud-ovest
Temperature 6°C
Umidità 81%
Pressione 1020 hPa
Visibilità 10 km o più
nessuna nube inferiore a 1500 m e nessun cumulonembo

METAR: LIBD 240250Z 21005KT CAVOK 06/03 Q1020

Ora: 04:22 (03:22 UTC)

Previsione

Il bollettino è stato emesso 4 ore e 22 minuti fa, alle 23:00 UTC
Previsione valida dal 24 alle 00 UTC al 24 alle 24 UTC
Vento 7 kt da ovest
Visibilità 10 km o più
nessuna nube inferiore a 1500 m e nessun cumulonembo
Evoluzione graduale
dal 24 alle 09 UTC al 24 alle 11 UTC
Vento 10 kt da nord/nord-est
Evoluzione graduale
dal 24 alle 18 UTC al 24 alle 20 UTC
Vento 7 kt da sud

TAF: LIBD 232300Z 2400/2424 28007KT CAVOK BECMG 2409/2411 02010KT BECMG 2418/2420 18007KT

Osservazioni e previsioni meteorologiche di più di 4000 aeroporti (messaggi METAR e TAF).

Le stazioni disponibili sono rappresentate dai dischi gialli e rossi sulla carta.

Puntare il mouse per vedere il nome della stazione.

Clicca sopra per visualizzare le osservazioni e previsioni meteorologiche.

Per cambiare la mappa : fare clic sui pulsanti verdi con una croce nera per ingrandire, il pulsante verde con un trattino per diminuire, o sulla freccia verde per le mappe adiacenti.


METAR-TAF: